createdAt,value
2017-06-23T00:00:13.094Z,16.02
2017-06-23T00:00:41.003Z,16.04
2017-06-23T00:01:09.030Z,15.93
2017-06-23T00:01:37.111Z,16.11
2017-06-23T00:02:05.326Z,16.06
2017-06-23T00:02:33.414Z,16
2017-06-23T00:03:01.468Z,16.04
2017-06-23T00:03:29.457Z,16.07
2017-06-23T00:03:57.682Z,15.98
2017-06-23T00:04:25.826Z,16.02
2017-06-23T00:04:54.036Z,15.99
2017-06-23T00:05:22.172Z,16.08
2017-06-23T00:05:50.427Z,16.04
2017-06-23T00:06:18.587Z,16
2017-06-23T00:06:46.777Z,16.04
2017-06-23T00:07:15.037Z,16.04
2017-06-23T00:07:43.235Z,16.04
2017-06-23T00:08:11.342Z,16.04
2017-06-23T00:08:39.526Z,16.02
2017-06-23T00:09:07.771Z,16.08
2017-06-23T00:09:36.994Z,15.99
2017-06-23T00:10:05.240Z,16
2017-06-23T00:10:33.509Z,16.04
2017-06-23T00:11:01.509Z,15.99
2017-06-23T00:11:29.428Z,15.99
2017-06-23T00:11:57.497Z,15.98
2017-06-23T00:12:25.526Z,16.04
2017-06-23T00:12:53.863Z,15.92
2017-06-23T00:13:21.996Z,15.96
2017-06-23T00:13:50.254Z,15.95
2017-06-23T00:14:18.459Z,15.95
2017-06-23T00:14:46.632Z,15.96
2017-06-23T00:15:14.616Z,15.91
2017-06-23T00:15:42.738Z,15.96
2017-06-23T00:16:10.651Z,15.83
2017-06-23T00:16:38.700Z,15.88
2017-06-23T00:17:06.689Z,15.83
2017-06-23T00:17:34.833Z,15.88
2017-06-23T00:18:02.899Z,15.83
2017-06-23T00:18:31.136Z,15.88
2017-06-23T00:18:59.332Z,15.89
2017-06-23T00:19:28.128Z,15.75
2017-06-23T00:19:56.393Z,15.84
2017-06-23T00:20:24.572Z,15.74
2017-06-23T00:20:52.666Z,15.74
2017-06-23T00:21:20.719Z,15.86
2017-06-23T00:21:48.866Z,15.84
2017-06-23T00:22:16.977Z,15.75
2017-06-23T00:22:45.143Z,15.81
2017-06-23T00:23:13.194Z,15.74
2017-06-23T00:23:41.434Z,15.75
2017-06-23T00:24:09.379Z,15.81
2017-06-23T00:24:38.688Z,15.75
2017-06-23T00:25:06.820Z,15.83
2017-06-23T00:25:35.025Z,15.74
2017-06-23T00:26:03.222Z,15.74
2017-06-23T00:26:31.237Z,15.71
2017-06-23T00:26:59.460Z,15.67
2017-06-23T00:27:27.699Z,15.75
2017-06-23T00:27:55.853Z,15.75
2017-06-23T00:28:23.907Z,15.68
2017-06-23T00:28:52.235Z,15.83
2017-06-23T00:29:20.404Z,15.75
2017-06-23T00:29:48.581Z,15.77
2017-06-23T00:30:16.796Z,15.88
2017-06-23T00:30:44.990Z,15.73
2017-06-23T00:31:13.111Z,15.77
2017-06-23T00:31:41.210Z,15.75
2017-06-23T00:32:09.493Z,15.78
2017-06-23T00:32:37.781Z,15.74
2017-06-23T00:33:06.027Z,15.7
2017-06-23T00:33:34.084Z,15.73
2017-06-23T00:34:02.307Z,15.75
2017-06-23T00:34:30.409Z,15.71
2017-06-23T00:34:58.430Z,15.73
2017-06-23T00:35:26.443Z,15.8
2017-06-23T00:35:54.554Z,15.67
2017-06-23T00:36:22.671Z,15.71
2017-06-23T00:36:50.589Z,15.7
2017-06-23T00:37:18.672Z,15.68
2017-06-23T00:37:47.080Z,15.67
2017-06-23T00:38:15.285Z,15.68
2017-06-23T00:38:43.809Z,15.73
2017-06-23T00:39:13.073Z,15.77
2017-06-23T00:39:41.368Z,15.7
2017-06-23T00:40:09.389Z,15.68
2017-06-23T00:40:37.603Z,15.71
2017-06-23T00:41:05.690Z,15.63
2017-06-23T00:41:34.011Z,15.65
2017-06-23T00:42:02.605Z,15.68
2017-06-23T00:42:30.724Z,15.63
2017-06-23T00:42:59.022Z,15.63
2017-06-23T00:43:27.165Z,15.73
2017-06-23T00:43:55.336Z,15.62
2017-06-23T00:44:23.501Z,15.65
2017-06-23T00:44:51.602Z,15.7
2017-06-23T00:45:19.738Z,15.75
2017-06-23T00:45:47.944Z,15.7
2017-06-23T00:46:16.023Z,15.6
2017-06-23T00:46:43.991Z,15.73
2017-06-23T00:47:12.265Z,15.75
2017-06-23T00:47:40.367Z,15.65
2017-06-23T00:48:08.750Z,15.73
2017-06-23T00:48:36.828Z,15.71
2017-06-23T00:49:04.771Z,15.71
2017-06-23T00:49:32.794Z,15.65
2017-06-23T00:50:00.978Z,15.63
2017-06-23T00:50:29.009Z,15.63
2017-06-23T00:50:57.125Z,15.56
2017-06-23T00:51:25.231Z,15.65
2017-06-23T00:51:53.247Z,15.68
2017-06-23T00:52:21.449Z,15.65
2017-06-23T00:52:49.562Z,15.55
2017-06-23T00:53:17.902Z,15.56
2017-06-23T00:53:46.128Z,15.59
2017-06-23T00:54:14.646Z,15.62
2017-06-23T00:54:42.751Z,15.52
2017-06-23T00:55:10.997Z,15.59
2017-06-23T00:55:39.083Z,15.56
2017-06-23T00:56:07.240Z,15.56
2017-06-23T00:56:35.331Z,15.67
2017-06-23T00:57:03.454Z,15.63
2017-06-23T00:57:31.709Z,15.65
2017-06-23T00:57:59.982Z,15.63
2017-06-23T00:58:28.191Z,15.67
2017-06-23T00:58:56.270Z,15.67
2017-06-23T00:59:24.361Z,15.71
2017-06-23T00:59:52.481Z,15.7
2017-06-23T01:00:20.666Z,15.62
2017-06-23T01:00:48.693Z,15.62
2017-06-23T01:01:16.793Z,15.63
2017-06-23T01:01:44.837Z,15.65
2017-06-23T01:02:12.981Z,15.77
2017-06-23T01:02:41.192Z,15.65
2017-06-23T01:03:09.471Z,15.6
2017-06-23T01:03:37.622Z,15.67
2017-06-23T01:04:05.780Z,15.75
2017-06-23T01:04:33.914Z,15.73
2017-06-23T01:05:01.951Z,15.68
2017-06-23T01:05:29.976Z,15.67
2017-06-23T01:05:58.165Z,15.7
2017-06-23T01:06:26.199Z,15.74
2017-06-23T01:06:54.233Z,15.7
2017-06-23T01:07:22.469Z,15.63
2017-06-23T01:07:50.642Z,15.63
2017-06-23T01:08:18.687Z,15.7
2017-06-23T01:08:46.633Z,15.59
2017-06-23T01:09:14.771Z,15.68
2017-06-23T01:09:42.902Z,15.62
2017-06-23T01:10:11.030Z,15.65
2017-06-23T01:10:39.071Z,15.55
2017-06-23T01:11:07.182Z,15.59
2017-06-23T01:11:35.401Z,15.58
2017-06-23T01:12:03.486Z,15.52
2017-06-23T01:12:31.497Z,15.45
2017-06-23T01:12:59.674Z,15.59
2017-06-23T01:13:27.919Z,15.51
2017-06-23T01:13:56.088Z,15.45
2017-06-23T01:14:24.228Z,15.41
2017-06-23T01:14:52.392Z,15.52
2017-06-23T01:15:20.333Z,15.49
2017-06-23T01:15:48.561Z,15.51
2017-06-23T01:16:16.694Z,15.41
2017-06-23T01:16:44.779Z,15.37
2017-06-23T01:17:12.914Z,15.38
2017-06-23T01:17:41.125Z,15.4
2017-06-23T01:18:09.352Z,15.38
2017-06-23T01:18:37.731Z,15.38
2017-06-23T01:19:05.846Z,15.41
2017-06-23T01:19:34.094Z,15.41
2017-06-23T01:20:02.134Z,15.47
2017-06-23T01:20:30.166Z,15.38
2017-06-23T01:20:58.386Z,15.43
2017-06-23T01:21:26.761Z,15.44
2017-06-23T01:21:54.990Z,15.37
2017-06-23T01:22:23.074Z,15.34
2017-06-23T01:22:51.351Z,15.4
2017-06-23T01:23:19.776Z,15.43
2017-06-23T01:23:48.008Z,15.44
2017-06-23T01:24:16.282Z,15.37
2017-06-23T01:24:44.394Z,15.49
2017-06-23T01:25:12.638Z,15.4
2017-06-23T01:25:40.866Z,15.34
2017-06-23T01:26:09.118Z,15.35
2017-06-23T01:26:37.372Z,15.43
2017-06-23T01:27:05.438Z,15.37
2017-06-23T01:27:33.677Z,15.38
2017-06-23T01:28:01.906Z,15.44
2017-06-23T01:28:31.017Z,15.4
2017-06-23T01:28:59.023Z,15.33
2017-06-23T01:29:27.151Z,15.38
2017-06-23T01:29:55.313Z,15.37
2017-06-23T01:30:23.406Z,15.3
2017-06-23T01:30:51.641Z,15.27
2017-06-23T01:31:19.679Z,15.44
2017-06-23T01:31:47.612Z,15.26
2017-06-23T01:32:15.876Z,15.37
2017-06-23T01:32:44.118Z,15.33
2017-06-23T01:33:12.248Z,15.35
2017-06-23T01:33:40.630Z,15.41
2017-06-23T01:34:08.796Z,15.45
2017-06-23T01:34:36.922Z,15.34
2017-06-23T01:35:05.157Z,15.37
2017-06-23T01:35:33.440Z,15.35
2017-06-23T01:36:01.601Z,15.25
2017-06-23T01:36:29.850Z,15.26
2017-06-23T01:36:57.950Z,15.31
2017-06-23T01:37:26.167Z,15.3
2017-06-23T01:37:54.180Z,15.3
2017-06-23T01:38:22.295Z,15.26
2017-06-23T01:38:50.586Z,15.31
2017-06-23T01:39:18.719Z,15.34
2017-06-23T01:39:46.840Z,15.35
2017-06-23T01:40:14.978Z,15.23
2017-06-23T01:40:43.143Z,15.26
2017-06-23T01:41:11.267Z,15.33
2017-06-23T01:41:39.496Z,15.3
2017-06-23T01:42:07.981Z,15.27
2017-06-23T01:42:36.122Z,15.3
2017-06-23T01:43:04.342Z,15.3
2017-06-23T01:43:32.293Z,15.27
2017-06-23T01:44:00.601Z,15.25
2017-06-23T01:44:28.803Z,15.31
2017-06-23T01:44:56.756Z,15.22
2017-06-23T01:45:24.876Z,15.2
2017-06-23T01:45:52.984Z,15.25
2017-06-23T01:46:21.199Z,15.23
2017-06-23T01:46:49.409Z,15.19
2017-06-23T01:47:17.416Z,15.23
2017-06-23T01:47:45.571Z,15.2
2017-06-23T01:48:13.673Z,15.18
2017-06-23T01:48:41.950Z,15.18
2017-06-23T01:49:09.915Z,15.2
2017-06-23T01:49:38.015Z,15.13
2017-06-23T01:50:06.122Z,15.16
2017-06-23T01:50:34.317Z,15.13
2017-06-23T01:51:02.538Z,15.16
2017-06-23T01:51:30.354Z,15.16
2017-06-23T01:51:58.397Z,15.13
2017-06-23T01:52:26.516Z,15.13
2017-06-23T01:52:54.692Z,15.05
2017-06-23T01:53:22.858Z,15.07
2017-06-23T01:53:50.911Z,15.1
2017-06-23T01:54:19.039Z,15.1
2017-06-23T01:54:47.274Z,15.07
2017-06-23T01:55:15.472Z,15.01
2017-06-23T01:55:43.484Z,15
2017-06-23T01:56:11.496Z,15.01
2017-06-23T01:56:39.535Z,15.1
2017-06-23T01:57:07.765Z,15.12
2017-06-23T01:57:35.896Z,15.04
2017-06-23T01:58:03.999Z,15.01
2017-06-23T01:58:32.217Z,15.05
2017-06-23T01:59:00.706Z,15.04
2017-06-23T01:59:28.921Z,15.01
2017-06-23T01:59:57.024Z,15.08
2017-06-23T02:00:25.200Z,15.13
2017-06-23T02:00:53.310Z,15.07
2017-06-23T02:01:21.437Z,15.15
2017-06-23T02:01:49.595Z,15.12
2017-06-23T02:02:17.678Z,15.07
2017-06-23T02:02:45.845Z,15.07
2017-06-23T02:03:14.014Z,15.01
2017-06-23T02:03:42.008Z,15.05
2017-06-23T02:04:10.400Z,15
2017-06-23T02:04:38.990Z,14.97
2017-06-23T02:05:07.099Z,14.95
2017-06-23T02:05:35.275Z,15.01
2017-06-23T02:06:03.438Z,14.93
2017-06-23T02:06:31.637Z,14.98
2017-06-23T02:06:59.629Z,14.94
2017-06-23T02:07:27.627Z,14.8
2017-06-23T02:07:55.943Z,14.83
2017-06-23T02:08:24.141Z,14.69
2017-06-23T02:08:52.261Z,14.79
2017-06-23T02:09:20.556Z,14.6
2017-06-23T02:09:48.792Z,14.59
2017-06-23T02:10:17.014Z,14.64
2017-06-23T02:10:45.222Z,14.66
2017-06-23T02:11:13.297Z,14.59
2017-06-23T02:11:41.488Z,14.53
2017-06-23T02:12:09.573Z,14.51
2017-06-23T02:12:37.720Z,14.51
2017-06-23T02:13:05.989Z,14.51
2017-06-23T02:13:33.986Z,14.42
2017-06-23T02:14:02.509Z,14.49
2017-06-23T02:14:30.490Z,14.38
2017-06-23T02:14:58.467Z,14.45
2017-06-23T02:15:26.661Z,14.51
2017-06-23T02:15:54.877Z,14.45
2017-06-23T02:16:22.987Z,14.44
2017-06-23T02:16:51.177Z,14.42
2017-06-23T02:17:19.286Z,14.46
2017-06-23T02:17:47.506Z,14.48
2017-06-23T02:18:15.651Z,14.49
2017-06-23T02:18:43.725Z,14.45
2017-06-23T02:19:12.079Z,14.46
2017-06-23T02:19:40.174Z,14.46
2017-06-23T02:20:08.408Z,14.46
2017-06-23T02:20:36.613Z,14.51
2017-06-23T02:21:04.761Z,14.48
2017-06-23T02:21:32.953Z,14.52
2017-06-23T02:22:01.097Z,14.53
2017-06-23T02:22:29.206Z,14.57
2017-06-23T02:22:57.422Z,14.51
2017-06-23T02:23:25.406Z,14.53
2017-06-23T02:23:53.605Z,14.59
2017-06-23T02:24:21.869Z,14.63
2017-06-23T02:24:50.040Z,14.61
2017-06-23T02:25:18.253Z,14.61
2017-06-23T02:25:46.401Z,14.69
2017-06-23T02:26:14.556Z,14.63
2017-06-23T02:26:42.777Z,14.64
2017-06-23T02:27:10.917Z,14.7
2017-06-23T02:27:39.042Z,14.7
2017-06-23T02:28:07.211Z,14.71
2017-06-23T02:28:35.273Z,14.75
2017-06-23T02:29:03.273Z,14.75
2017-06-23T02:29:31.714Z,14.7
2017-06-23T02:29:59.803Z,14.74
2017-06-23T02:30:27.999Z,14.69
2017-06-23T02:30:56.019Z,14.71
2017-06-23T02:31:24.047Z,14.74
2017-06-23T02:31:52.237Z,14.71
2017-06-23T02:32:20.348Z,14.63
2017-06-23T02:32:48.466Z,14.63
2017-06-23T02:33:16.526Z,14.66
2017-06-23T02:33:44.659Z,14.53
2017-06-23T02:34:12.769Z,14.56
2017-06-23T02:34:41.167Z,14.48
2017-06-23T02:35:09.381Z,14.52
2017-06-23T02:35:37.511Z,14.57
2017-06-23T02:36:05.626Z,14.57
2017-06-23T02:36:33.857Z,14.53
2017-06-23T02:37:02.102Z,14.57
2017-06-23T02:37:30.261Z,14.53
2017-06-23T02:37:58.405Z,14.48
2017-06-23T02:38:26.604Z,14.51
2017-06-23T02:38:54.642Z,14.48
2017-06-23T02:39:23.007Z,14.52
2017-06-23T02:39:51.221Z,14.48
2017-06-23T02:40:19.191Z,14.52
2017-06-23T02:40:47.340Z,14.59
2017-06-23T02:41:15.586Z,14.52
2017-06-23T02:41:43.750Z,14.49
2017-06-23T02:42:11.693Z,14.53
2017-06-23T02:42:39.775Z,14.61
2017-06-23T02:43:07.903Z,14.59
2017-06-23T02:43:35.778Z,14.59
2017-06-23T02:44:03.955Z,14.57
2017-06-23T02:44:32.196Z,14.59
2017-06-23T02:45:00.048Z,14.59
2017-06-23T02:45:28.142Z,14.59
2017-06-23T02:45:56.278Z,14.57
2017-06-23T02:46:24.419Z,14.59
2017-06-23T02:46:52.597Z,14.6
2017-06-23T02:47:20.750Z,14.64
2017-06-23T02:47:48.825Z,14.66
2017-06-23T02:48:16.942Z,14.63
2017-06-23T02:48:44.754Z,14.66
2017-06-23T02:49:12.961Z,14.64
2017-06-23T02:49:41.342Z,14.8
2017-06-23T02:50:09.456Z,14.69
2017-06-23T02:50:37.577Z,14.64
2017-06-23T02:51:05.750Z,14.69
2017-06-23T02:51:33.846Z,14.67
2017-06-23T02:52:01.945Z,14.61
2017-06-23T02:52:30.027Z,14.66
2017-06-23T02:52:58.084Z,14.61
2017-06-23T02:53:26.186Z,14.67
2017-06-23T02:53:54.303Z,14.64
2017-06-23T02:54:22.550Z,14.63
2017-06-23T02:54:50.987Z,14.6
2017-06-23T02:55:19.026Z,14.6
2017-06-23T02:55:47.134Z,14.56
2017-06-23T02:56:15.149Z,14.57
2017-06-23T02:56:43.212Z,14.59
2017-06-23T02:57:11.529Z,14.56
2017-06-23T02:57:39.725Z,14.45
2017-06-23T02:58:07.742Z,14.46
2017-06-23T02:58:35.850Z,14.49
2017-06-23T02:59:04.335Z,14.36
2017-06-23T02:59:32.468Z,14.34
2017-06-23T03:00:00.716Z,14.33
2017-06-23T03:00:28.841Z,14.26
2017-06-23T03:00:56.995Z,14.21
2017-06-23T03:01:25.107Z,14.16
2017-06-23T03:01:53.336Z,14.15
2017-06-23T03:02:21.555Z,14.16
2017-06-23T03:02:49.557Z,14.16
2017-06-23T03:03:17.658Z,14.09
2017-06-23T03:03:45.594Z,14.09
2017-06-23T03:04:13.802Z,14.08
2017-06-23T03:04:42.881Z,14.08
2017-06-23T03:05:11.098Z,14.01
2017-06-23T03:05:39.386Z,13.95
2017-06-23T03:06:07.487Z,13.97
2017-06-23T03:06:35.567Z,13.94
2017-06-23T03:07:03.784Z,13.94
2017-06-23T03:07:31.798Z,13.97
2017-06-23T03:08:00.025Z,13.94
2017-06-23T03:08:28.198Z,13.94
2017-06-23T03:08:56.396Z,13.93
2017-06-23T03:09:24.592Z,13.9
2017-06-23T03:09:52.866Z,13.94
2017-06-23T03:10:20.983Z,13.94
2017-06-23T03:10:48.860Z,13.95
2017-06-23T03:11:17.101Z,13.95
2017-06-23T03:11:45.182Z,13.97
2017-06-23T03:12:13.383Z,13.99
2017-06-23T03:12:41.468Z,13.99
2017-06-23T03:13:09.586Z,14.02
2017-06-23T03:13:37.805Z,14.03
2017-06-23T03:14:05.862Z,14.08
2017-06-23T03:14:34.103Z,14.05
2017-06-23T03:15:02.440Z,14.05
2017-06-23T03:15:30.647Z,14.03
2017-06-23T03:15:58.867Z,14.06
2017-06-23T03:16:26.929Z,14.02
2017-06-23T03:16:55.145Z,13.99
2017-06-23T03:17:23.335Z,14.01
2017-06-23T03:17:51.486Z,13.94
2017-06-23T03:18:19.718Z,13.99
2017-06-23T03:18:47.624Z,13.97
2017-06-23T03:19:15.794Z,13.94
2017-06-23T03:19:43.939Z,13.99
2017-06-23T03:20:12.199Z,14.02
2017-06-23T03:20:40.254Z,13.97
2017-06-23T03:21:08.238Z,13.94
2017-06-23T03:21:36.362Z,13.93
2017-06-23T03:22:04.487Z,14.01
2017-06-23T03:22:32.541Z,13.99
2017-06-23T03:23:00.657Z,13.99
2017-06-23T03:23:28.657Z,13.99
2017-06-23T03:23:56.950Z,13.99
2017-06-23T03:24:25.138Z,13.94
2017-06-23T03:24:53.346Z,13.95
2017-06-23T03:25:21.658Z,13.94
2017-06-23T03:25:49.758Z,13.94
2017-06-23T03:26:17.927Z,13.94
2017-06-23T03:26:45.959Z,13.95
2017-06-23T03:27:14.094Z,14.01
2017-06-23T03:27:42.114Z,13.93
2017-06-23T03:28:10.333Z,13.97
2017-06-23T03:28:38.445Z,13.97
2017-06-23T03:29:06.573Z,14.02
2017-06-23T03:29:34.629Z,13.97
2017-06-23T03:30:02.776Z,14.11
2017-06-23T03:30:30.790Z,14.08
2017-06-23T03:30:58.927Z,14.05
2017-06-23T03:31:27.018Z,14.11
2017-06-23T03:31:55.125Z,14.13
2017-06-23T03:32:23.182Z,14.08
2017-06-23T03:32:51.216Z,14.13
2017-06-23T03:33:19.462Z,14.12
2017-06-23T03:33:47.713Z,14.13
2017-06-23T03:34:15.821Z,14.08
2017-06-23T03:34:43.858Z,14.11
2017-06-23T03:35:12.211Z,14.09
2017-06-23T03:35:40.224Z,14.08
2017-06-23T03:36:08.346Z,14.11
2017-06-23T03:36:36.450Z,14.15
2017-06-23T03:37:04.538Z,14.11
2017-06-23T03:37:32.694Z,14.13
2017-06-23T03:38:00.829Z,14.08
2017-06-23T03:38:29.049Z,14.09
2017-06-23T03:38:57.086Z,14.09
2017-06-23T03:39:25.230Z,13.95
2017-06-23T03:39:53.258Z,14.11
2017-06-23T03:40:21.784Z,13.95
2017-06-23T03:40:49.795Z,13.95
2017-06-23T03:41:17.844Z,13.99
2017-06-23T03:41:45.977Z,14.09
2017-06-23T03:42:14.147Z,14.08
2017-06-23T03:42:42.268Z,14.13
2017-06-23T03:43:10.470Z,14.19
2017-06-23T03:43:38.445Z,14.2
2017-06-23T03:44:06.580Z,14.08
2017-06-23T03:44:34.769Z,14.16
2017-06-23T03:45:02.848Z,14.19
2017-06-23T03:45:31.257Z,14.16
2017-06-23T03:45:59.487Z,14.27
2017-06-23T03:46:27.728Z,14.31
2017-06-23T03:46:56.056Z,14.41
2017-06-23T03:47:24.285Z,14.34
2017-06-23T03:47:52.323Z,14.38
2017-06-23T03:48:20.442Z,14.51
2017-06-23T03:48:48.448Z,14.46
2017-06-23T03:49:16.487Z,14.52
2017-06-23T03:49:44.693Z,14.45
2017-06-23T03:50:12.713Z,14.52
2017-06-23T03:50:41.243Z,14.52
2017-06-23T03:51:09.369Z,14.52
2017-06-23T03:51:37.564Z,14.52
2017-06-23T03:52:05.717Z,14.53
2017-06-23T03:52:33.926Z,14.57
2017-06-23T03:53:02.141Z,14.53
2017-06-23T03:53:30.334Z,14.51
2017-06-23T03:53:58.415Z,14.49
2017-06-23T03:54:26.391Z,14.51
2017-06-23T03:54:54.655Z,14.6
2017-06-23T03:55:22.972Z,14.56
2017-06-23T03:55:51.156Z,14.57
2017-06-23T03:56:19.270Z,14.6
2017-06-23T03:56:47.432Z,14.6
2017-06-23T03:57:15.626Z,14.59
2017-06-23T03:57:43.833Z,14.6
2017-06-23T03:58:11.984Z,14.64
2017-06-23T03:58:40.212Z,14.63
2017-06-23T03:59:08.391Z,14.66
2017-06-23T03:59:36.447Z,14.63
2017-06-23T04:00:04.598Z,14.63
2017-06-23T04:00:32.885Z,14.61
2017-06-23T04:01:01.215Z,14.6
2017-06-23T04:01:29.445Z,14.6
2017-06-23T04:01:57.469Z,14.56
2017-06-23T04:02:25.697Z,14.67
2017-06-23T04:02:53.951Z,14.6
2017-06-23T04:03:22.241Z,14.59
2017-06-23T04:03:50.454Z,14.57
2017-06-23T04:04:18.550Z,14.6
2017-06-23T04:04:46.766Z,14.67
2017-06-23T04:05:15.050Z,14.52
2017-06-23T04:05:43.062Z,14.63
2017-06-23T04:06:11.163Z,14.56
2017-06-23T04:06:39.507Z,14.6
2017-06-23T04:07:07.595Z,14.59
2017-06-23T04:07:35.743Z,14.51
2017-06-23T04:08:04.016Z,14.57
2017-06-23T04:08:32.189Z,14.56
2017-06-23T04:09:00.299Z,14.56
2017-06-23T04:09:28.320Z,14.59
2017-06-23T04:09:56.450Z,14.57
2017-06-23T04:10:24.655Z,14.64
2017-06-23T04:10:53.215Z,14.53
2017-06-23T04:11:21.443Z,14.59
2017-06-23T04:11:49.685Z,14.59
2017-06-23T04:12:17.868Z,14.59
2017-06-23T04:12:45.918Z,14.56
2017-06-23T04:13:13.938Z,14.52
2017-06-23T04:13:42.243Z,14.53
2017-06-23T04:14:10.369Z,14.49
2017-06-23T04:14:38.676Z,14.52
2017-06-23T04:15:06.818Z,14.53
2017-06-23T04:15:35.254Z,14.57
2017-06-23T04:16:03.441Z,14.61
2017-06-23T04:16:31.645Z,14.64
2017-06-23T04:16:59.722Z,14.56
2017-06-23T04:17:28.117Z,14.6
2017-06-23T04:17:56.372Z,14.63
2017-06-23T04:18:24.485Z,14.6
2017-06-23T04:18:52.561Z,14.63
2017-06-23T04:19:20.869Z,14.63
2017-06-23T04:19:49.004Z,14.66
2017-06-23T04:20:17.022Z,14.66
2017-06-23T04:20:45.330Z,14.64
2017-06-23T04:21:13.470Z,14.57
2017-06-23T04:21:41.607Z,14.59
2017-06-23T04:22:09.735Z,14.61
2017-06-23T04:22:37.889Z,14.56
2017-06-23T04:23:05.934Z,14.53
2017-06-23T04:23:34.184Z,14.48
2017-06-23T04:24:02.196Z,14.46
2017-06-23T04:24:30.252Z,14.45
2017-06-23T04:24:58.346Z,14.41
2017-06-23T04:25:26.674Z,14.46
2017-06-23T04:25:54.878Z,14.44
2017-06-23T04:26:23.063Z,14.38
2017-06-23T04:26:51.234Z,14.44
2017-06-23T04:27:19.422Z,14.42
2017-06-23T04:27:47.625Z,14.41
2017-06-23T04:28:15.799Z,14.33
2017-06-23T04:28:44.014Z,14.36
2017-06-23T04:29:12.174Z,14.36
2017-06-23T04:29:40.451Z,14.31
2017-06-23T04:30:08.694Z,14.31
2017-06-23T04:30:36.933Z,14.42
2017-06-23T04:31:05.240Z,14.34
2017-06-23T04:31:33.487Z,14.38
2017-06-23T04:32:01.534Z,14.45
2017-06-23T04:32:29.704Z,14.46
2017-06-23T04:32:57.731Z,14.45
2017-06-23T04:33:25.780Z,14.48
2017-06-23T04:33:53.892Z,14.48
2017-06-23T04:34:22.026Z,14.42
2017-06-23T04:34:50.166Z,14.49
2017-06-23T04:35:18.307Z,14.49
2017-06-23T04:35:46.511Z,14.46
2017-06-23T04:36:14.743Z,14.51
2017-06-23T04:36:42.937Z,14.57
2017-06-23T04:37:11.011Z,14.48
2017-06-23T04:37:39.170Z,14.53
2017-06-23T04:38:07.414Z,14.57
2017-06-23T04:38:35.752Z,14.59
2017-06-23T04:39:03.823Z,14.56
2017-06-23T04:39:32.035Z,14.63
2017-06-23T04:40:00.266Z,14.6
2017-06-23T04:40:28.383Z,14.6
2017-06-23T04:40:56.558Z,14.6
2017-06-23T04:41:24.658Z,14.6
2017-06-23T04:41:52.762Z,14.57
2017-06-23T04:42:20.898Z,14.59
2017-06-23T04:42:49.094Z,14.53
2017-06-23T04:43:17.349Z,14.53
2017-06-23T04:43:45.469Z,14.52
2017-06-23T04:44:13.608Z,14.52
2017-06-23T04:44:41.703Z,14.49
2017-06-23T04:45:09.748Z,14.57
2017-06-23T04:45:37.838Z,14.56
2017-06-23T04:46:06.182Z,14.48
2017-06-23T04:46:34.377Z,14.44
2017-06-23T04:47:02.538Z,14.46
2017-06-23T04:47:30.760Z,14.48
2017-06-23T04:47:58.993Z,14.41
2017-06-23T04:48:27.110Z,14.45
2017-06-23T04:48:55.236Z,14.36
2017-06-23T04:49:23.266Z,14.3
2017-06-23T04:49:51.408Z,14.36
2017-06-23T04:50:19.492Z,14.31
2017-06-23T04:50:47.540Z,14.33
2017-06-23T04:51:16.010Z,14.36
2017-06-23T04:51:44.111Z,14.39
2017-06-23T04:52:12.141Z,14.39
2017-06-23T04:52:40.244Z,14.45
2017-06-23T04:53:08.372Z,14.39
2017-06-23T04:53:36.518Z,14.48
2017-06-23T04:54:05.013Z,14.45
2017-06-23T04:54:33.266Z,14.48
2017-06-23T04:55:01.396Z,14.45
2017-06-23T04:55:29.532Z,14.44
2017-06-23T04:55:57.677Z,14.48
2017-06-23T04:56:25.915Z,14.51
2017-06-23T04:56:53.918Z,14.48
2017-06-23T04:57:22.045Z,14.48
2017-06-23T04:57:50.247Z,14.52
2017-06-23T04:58:18.277Z,14.49
2017-06-23T04:58:46.304Z,14.51
2017-06-23T04:59:14.497Z,14.51
2017-06-23T04:59:42.651Z,14.45
2017-06-23T05:00:10.823Z,14.52
2017-06-23T05:00:38.945Z,14.48
2017-06-23T05:01:07.150Z,14.52
2017-06-23T05:01:35.487Z,14.46
2017-06-23T05:02:03.589Z,14.45
2017-06-23T05:02:31.825Z,14.39
2017-06-23T05:02:59.957Z,14.45
2017-06-23T05:03:28.138Z,14.48
2017-06-23T05:03:56.255Z,14.48
2017-06-23T05:04:24.357Z,14.44
2017-06-23T05:04:52.600Z,14.48
2017-06-23T05:05:20.657Z,14.44
2017-06-23T05:05:48.794Z,14.39
2017-06-23T05:06:16.976Z,14.39
2017-06-23T05:06:45.884Z,14.38
2017-06-23T05:07:13.980Z,14.38
2017-06-23T05:07:42.076Z,14.39
2017-06-23T05:08:10.345Z,14.39
2017-06-23T05:08:38.442Z,14.36
2017-06-23T05:09:06.699Z,14.33
2017-06-23T05:09:34.817Z,14.28
2017-06-23T05:10:02.979Z,14.28
2017-06-23T05:10:31.097Z,14.34
2017-06-23T05:10:59.290Z,14.33
2017-06-23T05:11:27.608Z,14.39
2017-06-23T05:11:55.611Z,14.36
2017-06-23T05:12:23.757Z,14.36
2017-06-23T05:12:51.935Z,14.26
2017-06-23T05:13:20.058Z,14.31
2017-06-23T05:13:48.212Z,14.23
2017-06-23T05:14:16.333Z,14.24
2017-06-23T05:14:44.518Z,14.23
2017-06-23T05:15:12.734Z,14.2
2017-06-23T05:15:40.854Z,14.24
2017-06-23T05:16:09.077Z,14.26
2017-06-23T05:16:37.369Z,14.2
2017-06-23T05:17:05.506Z,14.24
2017-06-23T05:17:33.612Z,14.28
2017-06-23T05:18:01.645Z,14.23
2017-06-23T05:18:29.805Z,14.21
2017-06-23T05:18:57.889Z,14.27
2017-06-23T05:19:26.096Z,14.26
2017-06-23T05:19:54.229Z,14.2
2017-06-23T05:20:22.354Z,14.23
2017-06-23T05:20:50.504Z,14.21
2017-06-23T05:21:18.634Z,14.24
2017-06-23T05:21:46.723Z,14.24
2017-06-23T05:22:14.927Z,14.27
2017-06-23T05:22:43.150Z,14.2
2017-06-23T05:23:11.281Z,14.2
2017-06-23T05:23:39.440Z,14.24
2017-06-23T05:24:07.673Z,14.19
2017-06-23T05:24:35.802Z,14.16
2017-06-23T05:25:03.916Z,14.21
2017-06-23T05:25:32.588Z,14.12
2017-06-23T05:26:00.795Z,14.16
2017-06-23T05:26:28.909Z,14.19
2017-06-23T05:26:57.163Z,14.09
2017-06-23T05:27:26.152Z,14.19
2017-06-23T05:27:54.148Z,14.12
2017-06-23T05:28:22.291Z,14.16
2017-06-23T05:28:50.307Z,14.08
2017-06-23T05:29:18.496Z,14.11
2017-06-23T05:29:46.612Z,14.12
2017-06-23T05:30:14.703Z,14.12
2017-06-23T05:30:42.886Z,14.06
2017-06-23T05:31:10.991Z,14.12
2017-06-23T05:31:39.269Z,14.09
2017-06-23T05:32:07.417Z,14.09
2017-06-23T05:32:35.579Z,14.09
2017-06-23T05:33:03.786Z,14.13
2017-06-23T05:33:31.879Z,14.09
2017-06-23T05:33:59.871Z,14.08
2017-06-23T05:34:28.008Z,14.15
2017-06-23T05:34:56.283Z,14.24
2017-06-23T05:35:24.448Z,14.21
2017-06-23T05:35:52.694Z,14.2
2017-06-23T05:36:20.798Z,14.21
2017-06-23T05:36:49.015Z,14.16
2017-06-23T05:37:17.248Z,14.13
2017-06-23T05:37:45.159Z,14.16
2017-06-23T05:38:13.260Z,14.2
2017-06-23T05:38:41.264Z,14.11
2017-06-23T05:39:09.414Z,14.16
2017-06-23T05:39:37.641Z,14.12
2017-06-23T05:40:05.882Z,14.06
2017-06-23T05:40:34.360Z,14.08
2017-06-23T05:41:02.533Z,14.19
2017-06-23T05:41:30.564Z,14.2
2017-06-23T05:41:58.765Z,14.12
2017-06-23T05:42:26.895Z,14.12
2017-06-23T05:42:55.050Z,14.08
2017-06-23T05:43:23.237Z,14.12
2017-06-23T05:43:51.248Z,14.11
2017-06-23T05:44:19.327Z,14.09
2017-06-23T05:44:47.439Z,14.12
2017-06-23T05:45:15.650Z,14.16
2017-06-23T05:45:43.740Z,14.16
2017-06-23T05:46:11.911Z,14.16
2017-06-23T05:46:39.803Z,14.28
2017-06-23T05:47:08.005Z,14.27
2017-06-23T05:47:35.995Z,14.28
2017-06-23T05:48:04.076Z,14.33
2017-06-23T05:48:32.146Z,14.31
2017-06-23T05:49:00.388Z,14.39
2017-06-23T05:49:28.507Z,14.34
2017-06-23T05:49:56.538Z,14.36
2017-06-23T05:50:24.654Z,14.33
2017-06-23T05:50:52.798Z,14.38
2017-06-23T05:51:20.807Z,14.39
2017-06-23T05:51:48.919Z,14.34
2017-06-23T05:52:16.946Z,14.42
2017-06-23T05:52:45.054Z,14.39
2017-06-23T05:53:13.202Z,14.33
2017-06-23T05:53:41.332Z,14.31
2017-06-23T05:54:09.457Z,14.33
2017-06-23T05:54:37.580Z,14.28
2017-06-23T05:55:05.772Z,14.31
2017-06-23T05:55:33.829Z,14.34
2017-06-23T05:56:02.003Z,14.33
2017-06-23T05:56:30.161Z,14.33
2017-06-23T05:56:58.939Z,14.34
2017-06-23T05:57:27.117Z,14.45
2017-06-23T05:57:55.243Z,14.42
2017-06-23T05:58:23.433Z,14.44
2017-06-23T05:58:51.668Z,14.48
2017-06-23T05:59:19.694Z,14.41
2017-06-23T05:59:47.856Z,14.46
2017-06-23T06:00:15.897Z,14.49
2017-06-23T06:00:44.055Z,14.44
2017-06-23T06:01:12.307Z,14.46
2017-06-23T06:01:40.549Z,14.46
2017-06-23T06:02:08.903Z,14.46
2017-06-23T06:02:37.447Z,14.48
2017-06-23T06:03:05.410Z,14.49
2017-06-23T06:03:33.528Z,14.45
2017-06-23T06:04:01.610Z,14.52